createdAt,value
2022-11-21T00:01:26.717Z,8.14
2022-11-21T00:03:53.843Z,8.31
2022-11-21T00:06:20.674Z,8.24
2022-11-21T00:08:47.781Z,8.24
2022-11-21T00:11:15.447Z,8.22
2022-11-21T00:13:43.193Z,8.29
2022-11-21T00:16:14.069Z,8.30
2022-11-21T00:18:42.110Z,8.29
2022-11-21T00:21:14.341Z,8.32
2022-11-21T00:23:41.697Z,8.24
2022-11-21T00:26:10.537Z,8.23
2022-11-21T00:28:37.573Z,8.18
2022-11-21T00:31:05.408Z,8.05
2022-11-21T00:33:34.712Z,8.19
2022-11-21T00:36:08.543Z,8.19
2022-11-21T00:38:35.857Z,8.19
2022-11-21T00:41:02.658Z,8.20
2022-11-21T00:43:29.425Z,8.30
2022-11-21T00:45:56.294Z,8.33
2022-11-21T00:48:23.062Z,8.25
2022-11-21T00:50:50.140Z,8.21
2022-11-21T00:53:16.950Z,8.22
2022-11-21T00:55:43.772Z,8.17
2022-11-21T00:58:10.564Z,8.21
2022-11-21T01:00:37.388Z,8.24
2022-11-21T01:03:04.188Z,8.26
2022-11-21T01:05:33.177Z,8.19
2022-11-21T01:07:59.943Z,8.20
2022-11-21T01:10:26.789Z,8.23
2022-11-21T01:12:53.570Z,8.21
2022-11-21T01:15:20.334Z,8.19
2022-11-21T01:17:47.126Z,8.23
2022-11-21T01:20:14.799Z,8.06
2022-11-21T01:22:41.529Z,8.17
2022-11-21T01:25:08.658Z,8.20
2022-11-21T01:27:35.655Z,8.03
2022-11-21T01:30:02.436Z,8.27
2022-11-21T01:32:29.212Z,8.24
2022-11-21T01:34:55.992Z,8.22
2022-11-21T01:37:22.758Z,8.20
2022-11-21T01:39:49.521Z,8.22
2022-11-21T01:42:16.272Z,8.33
2022-11-21T01:44:53.515Z,8.36
2022-11-21T01:47:22.490Z,8.38
2022-11-21T01:49:49.973Z,8.33
2022-11-21T01:52:28.647Z,8.33
2022-11-21T01:55:03.794Z,8.22
2022-11-21T01:57:41.465Z,8.15
2022-11-21T02:00:11.319Z,8.17
2022-11-21T02:02:44.346Z,8.17
2022-11-21T02:05:18.706Z,8.22
2022-11-21T02:07:48.626Z,8.23
2022-11-21T02:10:16.659Z,8.18
2022-11-21T02:13:00.096Z,8.12
2022-11-21T02:15:29.555Z,7.94
2022-11-21T02:17:56.521Z,8.01
2022-11-21T02:20:26.309Z,8.02
2022-11-21T02:23:07.936Z,8.08
2022-11-21T02:25:37.967Z,8.09
2022-11-21T02:28:12.140Z,8.14
2022-11-21T02:30:41.393Z,8.13
2022-11-21T02:33:08.804Z,8.14
2022-11-21T02:35:35.926Z,8.11
2022-11-21T02:38:18.233Z,8.19
2022-11-21T02:41:05.944Z,8.18
2022-11-21T02:43:44.772Z,8.18
2022-11-21T02:46:11.577Z,8.09
2022-11-21T02:48:39.192Z,8.05
2022-11-21T02:51:06.091Z,8.07
2022-11-21T02:53:32.939Z,8.07
2022-11-21T02:55:59.737Z,8.13
2022-11-21T02:58:27.035Z,7.94
2022-11-21T03:00:55.204Z,8.14
2022-11-21T03:03:22.552Z,8.11
2022-11-21T03:05:49.404Z,8.09
2022-11-21T03:08:16.217Z,8.11
2022-11-21T03:10:43.017Z,8.09
2022-11-21T03:13:09.772Z,8.31
2022-11-21T03:15:36.559Z,8.33
2022-11-21T03:18:04.455Z,8.20
2022-11-21T03:20:32.968Z,8.21
2022-11-21T03:22:59.744Z,8.20
2022-11-21T03:25:26.635Z,8.22
2022-11-21T03:27:54.534Z,8.24
2022-11-21T03:30:24.460Z,8.26
2022-11-21T03:32:51.357Z,8.23
2022-11-21T03:35:18.186Z,8.23
2022-11-21T03:37:45.038Z,8.25
2022-11-21T03:40:12.534Z,8.28
2022-11-21T03:42:39.448Z,8.33
2022-11-21T03:45:07.192Z,8.29
2022-11-21T03:47:34.147Z,8.30
2022-11-21T03:50:00.983Z,8.35
2022-11-21T03:52:27.833Z,8.37
2022-11-21T03:54:54.629Z,8.28
2022-11-21T03:57:21.431Z,8.48
2022-11-21T03:59:48.235Z,8.30
2022-11-21T04:02:15.068Z,8.30
2022-11-21T04:04:41.854Z,8.37
2022-11-21T04:07:08.733Z,8.39
2022-11-21T04:09:35.666Z,8.43
2022-11-21T04:12:07.312Z,8.17
2022-11-21T04:14:34.724Z,8.40
2022-11-21T04:17:01.639Z,8.38
2022-11-21T04:19:28.450Z,8.43
2022-11-21T04:21:55.208Z,8.43
2022-11-21T04:24:21.999Z,8.44
2022-11-21T04:26:48.793Z,8.44
2022-11-21T04:29:15.556Z,8.43
2022-11-21T04:31:42.328Z,8.43
2022-11-21T04:34:09.151Z,8.47
2022-11-21T04:36:36.099Z,8.41
2022-11-21T04:39:04.279Z,8.51
2022-11-21T04:41:31.145Z,8.46
2022-11-21T04:43:57.954Z,8.29
2022-11-21T04:46:24.799Z,8.50
2022-11-21T04:48:51.608Z,8.52
2022-11-21T04:51:18.503Z,8.46
2022-11-21T04:53:45.273Z,8.50
2022-11-21T04:56:16.227Z,8.46
2022-11-21T04:58:44.693Z,8.54
2022-11-21T05:01:12.238Z,8.54
2022-11-21T05:03:39.254Z,8.39
2022-11-21T05:06:06.097Z,8.45
2022-11-21T05:08:32.890Z,8.43
2022-11-21T05:11:17.870Z,8.42
2022-11-21T05:13:44.619Z,8.42
2022-11-21T05:16:11.459Z,8.38
2022-11-21T05:18:38.308Z,8.31
2022-11-21T05:21:05.174Z,8.24
2022-11-21T05:23:32.036Z,8.47
2022-11-21T05:25:58.832Z,8.40
2022-11-21T05:28:25.725Z,8.37
2022-11-21T05:30:52.528Z,8.36
2022-11-21T05:33:20.280Z,8.34
2022-11-21T05:35:47.178Z,8.29
2022-11-21T05:38:13.966Z,8.36
2022-11-21T05:40:40.777Z,8.37
2022-11-21T05:43:26.397Z,8.31
2022-11-21T05:45:53.449Z,8.25
2022-11-21T05:48:20.310Z,8.19
2022-11-21T05:50:50.189Z,8.21
2022-11-21T05:53:17.679Z,8.32
2022-11-21T05:55:45.369Z,8.12
2022-11-21T05:58:12.383Z,8.16
2022-11-21T06:00:39.329Z,8.24
2022-11-21T06:03:27.842Z,8.30
2022-11-21T06:06:13.347Z,8.19
2022-11-21T06:08:43.588Z,8.23
2022-11-21T06:11:15.946Z,8.12
2022-11-21T06:13:43.483Z,8.08
2022-11-21T06:16:13.885Z,8.08
2022-11-21T06:18:44.089Z,8.15
2022-11-21T06:21:16.965Z,8.12
2022-11-21T06:23:44.259Z,8.11
2022-11-21T06:26:18.684Z,8.00
2022-11-21T06:28:46.817Z,8.11
2022-11-21T06:31:18.364Z,8.15
2022-11-21T06:33:45.996Z,8.19
2022-11-21T06:36:19.112Z,8.21
2022-11-21T06:38:46.725Z,8.17
2022-11-21T06:41:15.594Z,8.06
2022-11-21T06:43:43.141Z,8.05
2022-11-21T06:46:10.619Z,7.99
2022-11-21T06:48:38.479Z,7.93
2022-11-21T06:51:22.203Z,7.89
2022-11-21T06:53:57.438Z,7.88
2022-11-21T06:56:30.335Z,7.85
2022-11-21T06:58:58.318Z,7.78
2022-11-21T07:01:25.979Z,7.82
2022-11-21T07:03:53.712Z,7.80
2022-11-21T07:06:20.797Z,7.81
2022-11-21T07:08:52.435Z,7.77
2022-11-21T07:11:26.895Z,7.65
2022-11-21T07:13:53.884Z,7.80
2022-11-21T07:16:20.636Z,7.75
2022-11-21T07:18:47.869Z,7.63
2022-11-21T07:21:15.018Z,7.67
2022-11-21T07:23:41.987Z,7.65
2022-11-21T07:26:10.774Z,7.60
2022-11-21T07:28:37.594Z,7.57
2022-11-21T07:31:09.962Z,7.61
2022-11-21T07:33:38.649Z,7.59
2022-11-21T07:36:05.881Z,7.68
2022-11-21T07:38:32.669Z,7.70
2022-11-21T07:40:59.547Z,7.69
2022-11-21T07:43:26.308Z,7.65
2022-11-21T07:45:53.075Z,7.69
2022-11-21T07:48:19.847Z,7.66
2022-11-21T07:50:46.595Z,7.60
2022-11-21T07:53:13.547Z,7.55
2022-11-21T07:55:41.028Z,7.48
2022-11-21T07:58:11.759Z,7.61
2022-11-21T08:00:42.638Z,7.54
2022-11-21T08:03:11.942Z,7.50
2022-11-21T08:05:41.810Z,7.62
2022-11-21T08:08:10.596Z,7.72
2022-11-21T08:10:43.725Z,7.66
2022-11-21T08:13:11.845Z,7.68
2022-11-21T08:15:39.275Z,7.76
2022-11-21T08:18:15.791Z,7.82
2022-11-21T08:20:42.846Z,7.80
2022-11-21T08:23:10.721Z,7.84
2022-11-21T08:25:38.994Z,7.85
2022-11-21T08:28:07.604Z,7.91
2022-11-21T08:30:35.801Z,7.96
2022-11-21T08:33:03.537Z,7.94
2022-11-21T08:35:30.726Z,7.98
2022-11-21T08:37:59.170Z,8.00
2022-11-21T08:40:28.312Z,7.99
2022-11-21T08:43:07.270Z,7.98
2022-11-21T08:45:36.391Z,8.08
2022-11-21T08:48:04.068Z,8.04
2022-11-21T08:50:31.964Z,8.09
2022-11-21T08:53:02.904Z,8.12
2022-11-21T08:55:30.858Z,8.15
2022-11-21T08:57:58.440Z,8.18
2022-11-21T09:00:25.613Z,8.20
2022-11-21T09:02:52.426Z,8.23
2022-11-21T09:05:19.294Z,8.28
2022-11-21T09:07:47.563Z,8.29
2022-11-21T09:10:15.028Z,8.36
2022-11-21T09:12:41.895Z,8.37
2022-11-21T09:15:29.836Z,8.33
2022-11-21T09:18:04.532Z,8.44
2022-11-21T09:20:40.958Z,8.45
2022-11-21T09:23:11.802Z,8.53
2022-11-21T09:25:38.777Z,8.57
2022-11-21T09:28:08.064Z,8.53
2022-11-21T09:30:35.642Z,8.60
2022-11-21T09:33:04.468Z,8.64
2022-11-21T09:35:31.884Z,8.62
2022-11-21T09:37:59.242Z,8.71
2022-11-21T09:40:26.543Z,8.69
2022-11-21T09:43:58.096Z,8.77
2022-11-21T09:46:31.864Z,8.82
2022-11-21T09:49:06.675Z,8.85
2022-11-21T09:51:37.654Z,8.88
2022-11-21T09:54:10.964Z,8.90
2022-11-21T09:56:41.462Z,8.94
2022-11-21T09:59:29.282Z,8.87
2022-11-21T10:01:56.723Z,8.85
2022-11-21T10:04:23.735Z,8.97
2022-11-21T10:07:07.341Z,9.02
2022-11-21T10:10:03.534Z,9.05
2022-11-21T10:13:06.713Z,9.02
2022-11-21T10:15:58.387Z,8.94
2022-11-21T10:19:21.861Z,9.09
2022-11-21T10:22:21.095Z,9.12
2022-11-21T10:24:57.848Z,9.22
2022-11-21T10:27:36.755Z,9.24
2022-11-21T10:30:13.711Z,9.27
2022-11-21T10:32:48.982Z,9.33
2022-11-21T10:35:48.644Z,9.19
2022-11-21T10:38:26.693Z,9.13
2022-11-21T10:41:40.535Z,9.21
2022-11-21T10:44:45.765Z,9.26
2022-11-21T10:47:27.624Z,9.36
2022-11-21T10:50:14.539Z,9.33
2022-11-21T10:53:37.432Z,9.33
2022-11-21T10:56:13.696Z,9.35
2022-11-21T10:58:45.589Z,9.38
2022-11-21T11:01:33.890Z,9.54
2022-11-21T11:06:59.908Z,9.65
2022-11-21T11:09:33.084Z,9.79
2022-11-21T11:12:18.824Z,9.90
2022-11-21T11:14:56.201Z,9.98
2022-11-21T11:17:31.961Z,9.97
2022-11-21T11:20:44.908Z,9.91
2022-11-21T11:23:25.748Z,10.00
2022-11-21T11:25:58.507Z,10.03
2022-11-21T11:28:27.254Z,10.19
2022-11-21T11:30:55.798Z,10.26
2022-11-21T11:33:41.054Z,10.30
2022-11-21T11:36:11.971Z,10.42
2022-11-21T11:38:41.215Z,10.41
2022-11-21T11:42:22.780Z,10.39
2022-11-21T11:45:17.625Z,10.52
2022-11-21T11:48:00.191Z,10.51
2022-11-21T11:50:50.462Z,10.43
2022-11-21T11:53:42.222Z,10.46
2022-11-21T11:56:22.668Z,10.52
2022-11-21T11:59:05.261Z,10.55
2022-11-21T12:01:55.803Z,10.54
2022-11-21T12:04:25.116Z,10.60
2022-11-21T12:08:19.902Z,10.67
2022-11-21T12:10:27.643Z,10.70
2022-11-21T12:13:14.224Z,10.66
2022-11-21T12:15:50.671Z,10.70
2022-11-21T12:18:20.455Z,10.67
2022-11-21T12:21:14.472Z,10.64
2022-11-21T12:23:58.572Z,10.60
2022-11-21T12:26:45.308Z,10.63
2022-11-21T12:29:36.102Z,10.64
2022-11-21T12:32:31.401Z,10.68
2022-11-21T12:35:44.302Z,10.66
2022-11-21T12:38:45.238Z,10.68
2022-11-21T12:41:48.312Z,10.67
2022-11-21T12:44:59.539Z,10.67
2022-11-21T12:48:01.244Z,10.67
2022-11-21T12:51:08.972Z,10.68
2022-11-21T12:54:30.243Z,10.72
2022-11-21T12:57:09.862Z,10.74
2022-11-21T13:00:17.171Z,10.76
2022-11-21T13:03:24.460Z,10.75
2022-11-21T13:05:53.543Z,10.77
2022-11-21T13:08:25.517Z,10.78
2022-11-21T13:11:57.374Z,10.77
2022-11-21T13:14:48.440Z,10.77
2022-11-21T13:17:36.953Z,10.79
2022-11-21T13:20:28.138Z,10.78
2022-11-21T13:23:01.042Z,10.78
2022-11-21T13:25:41.093Z,10.83
2022-11-21T13:28:13.941Z,10.85
2022-11-21T13:30:52.309Z,10.87
2022-11-21T13:33:38.957Z,10.89
2022-11-21T13:36:14.001Z,10.89
2022-11-21T13:38:52.814Z,10.90
2022-11-21T13:41:53.332Z,10.88
2022-11-21T13:44:32.334Z,10.78
2022-11-21T13:47:10.841Z,10.86
2022-11-21T13:49:43.391Z,10.89
2022-11-21T13:52:49.901Z,10.88
2022-11-21T13:55:59.555Z,10.88
2022-11-21T13:59:12.628Z,10.90
2022-11-21T14:01:57.328Z,10.92
2022-11-21T14:04:43.264Z,10.94
2022-11-21T14:07:31.528Z,10.95
2022-11-21T14:10:04.605Z,10.92
2022-11-21T14:12:44.301Z,10.83
2022-11-21T14:15:38.830Z,10.95
2022-11-21T14:18:06.455Z,10.96
2022-11-21T14:20:56.814Z,11.00
2022-11-21T14:23:26.826Z,10.94
2022-11-21T14:25:57.547Z,10.94
2022-11-21T14:28:34.159Z,10.99
2022-11-21T14:31:10.226Z,11.04
2022-11-21T14:33:41.379Z,10.95
2022-11-21T14:36:16.833Z,10.90
2022-11-21T14:39:02.107Z,10.80
2022-11-21T14:41:38.418Z,10.88
2022-11-21T14:44:15.372Z,10.88
2022-11-21T14:46:43.323Z,10.87
2022-11-21T14:49:15.856Z,10.86
2022-11-21T14:51:45.655Z,10.89
2022-11-21T14:54:18.896Z,10.72
2022-11-21T14:56:49.359Z,10.65
2022-11-21T14:59:29.781Z,10.81
2022-11-21T15:02:22.079Z,10.86
2022-11-21T15:04:52.218Z,10.88
2022-11-21T15:07:30.162Z,10.88
2022-11-21T15:12:48.246Z,10.90
2022-11-21T15:15:35.601Z,10.93
2022-11-21T15:18:27.546Z,10.91
2022-11-21T15:20:55.713Z,10.92
2022-11-21T15:23:42.963Z,10.76
2022-11-21T15:26:35.452Z,10.85
2022-11-21T15:29:02.227Z,10.87
2022-11-21T15:31:29.133Z,10.86
2022-11-21T15:34:33.756Z,10.83
2022-11-21T15:37:16.622Z,10.79
2022-11-21T15:39:50.009Z,10.77
2022-11-21T15:42:31.922Z,10.75
2022-11-21T15:45:15.339Z,10.66
2022-11-21T15:47:47.043Z,10.71
2022-11-21T15:50:15.110Z,10.65
2022-11-21T15:52:51.216Z,10.60
2022-11-21T15:55:26.222Z,10.56
2022-11-21T15:57:53.017Z,10.62
2022-11-21T16:00:19.897Z,10.52
2022-11-21T16:02:47.381Z,10.51
2022-11-21T16:05:15.741Z,10.47
2022-11-21T16:07:42.845Z,10.47
2022-11-21T16:10:16.576Z,10.43
2022-11-21T16:12:47.116Z,10.45
2022-11-21T16:15:14.235Z,10.39
2022-11-21T16:17:41.683Z,10.26
2022-11-21T16:20:09.095Z,10.24
2022-11-21T16:22:35.842Z,10.30
2022-11-21T16:25:02.710Z,10.27
2022-11-21T16:27:29.598Z,10.19
2022-11-21T16:29:56.377Z,10.13
2022-11-21T16:32:26.369Z,10.06
2022-11-21T16:34:54.557Z,10.06
2022-11-21T16:37:21.363Z,9.89
2022-11-21T16:39:51.882Z,9.90
2022-11-21T16:42:19.698Z,9.86
2022-11-21T16:44:46.511Z,9.82
2022-11-21T16:47:14.849Z,9.78
2022-11-21T16:49:48.247Z,9.75
2022-11-21T16:52:16.125Z,9.69
2022-11-21T16:54:42.990Z,9.69
2022-11-21T16:57:09.806Z,9.70
2022-11-21T16:59:37.107Z,9.68
2022-11-21T17:02:04.320Z,9.63
2022-11-21T17:04:31.966Z,9.66
2022-11-21T17:07:00.787Z,9.53
2022-11-21T17:09:27.732Z,9.54
2022-11-21T17:11:57.768Z,9.54
2022-11-21T17:14:24.528Z,9.54
2022-11-21T17:16:51.416Z,9.52
2022-11-21T17:19:18.307Z,9.38
2022-11-21T17:21:45.276Z,9.50
2022-11-21T17:24:15.156Z,9.30
2022-11-21T17:26:41.969Z,9.46
2022-11-21T17:29:09.719Z,9.44
2022-11-21T17:31:36.662Z,9.43
2022-11-21T17:34:03.584Z,9.41
2022-11-21T17:36:34.186Z,9.31
2022-11-21T17:39:01.076Z,9.38
2022-11-21T17:41:28.073Z,9.25
2022-11-21T17:43:57.008Z,9.21
2022-11-21T17:46:28.330Z,9.27
2022-11-21T17:48:58.274Z,9.25
2022-11-21T17:51:29.442Z,9.23
2022-11-21T17:53:56.487Z,9.18
2022-11-21T17:56:28.510Z,9.14
2022-11-21T17:58:55.640Z,8.85
2022-11-21T18:01:22.902Z,9.21
2022-11-21T18:03:57.689Z,9.22
2022-11-21T18:06:32.423Z,9.13
2022-11-21T18:08:59.444Z,9.04
2022-11-21T18:11:38.900Z,8.97
2022-11-21T18:14:08.180Z,8.99
2022-11-21T18:16:35.588Z,8.94
2022-11-21T18:19:02.452Z,8.96
2022-11-21T18:21:32.366Z,8.95
2022-11-21T18:24:02.197Z,8.95
2022-11-21T18:26:32.696Z,8.95
2022-11-21T18:29:28.490Z,8.92
2022-11-21T18:31:49.209Z,8.89
2022-11-21T18:34:16.035Z,8.90
2022-11-21T18:36:42.782Z,8.93
2022-11-21T18:39:14.563Z,8.90
2022-11-21T18:41:43.585Z,8.91
2022-11-21T18:44:10.771Z,8.91
2022-11-21T18:46:41.022Z,8.91
2022-11-21T18:49:08.575Z,8.89
2022-11-21T18:51:36.863Z,8.92
2022-11-21T18:54:07.777Z,8.94
2022-11-21T18:56:36.826Z,8.90
2022-11-21T18:59:05.907Z,8.93
2022-11-21T19:01:34.750Z,8.92
2022-11-21T19:04:01.787Z,8.94
2022-11-21T19:06:29.210Z,8.88
2022-11-21T19:08:58.266Z,8.90
2022-11-21T19:11:28.510Z,8.91
2022-11-21T19:13:57.262Z,8.90
2022-11-21T19:16:27.404Z,8.89
2022-11-21T19:19:26.333Z,8.88
2022-11-21T19:21:42.405Z,8.90
2022-11-21T19:24:14.158Z,8.90
2022-11-21T19:26:41.982Z,8.88
2022-11-21T19:29:09.750Z,8.84
2022-11-21T19:31:42.611Z,8.87
2022-11-21T19:34:12.176Z,8.84
2022-11-21T19:36:39.496Z,8.83
2022-11-21T19:39:06.699Z,8.83
2022-11-21T19:41:33.529Z,8.81
2022-11-21T19:44:01.770Z,8.83
2022-11-21T19:46:35.232Z,8.81
2022-11-21T19:49:02.593Z,8.79
2022-11-21T19:51:31.822Z,8.81
2022-11-21T19:53:58.689Z,8.91
2022-11-21T19:56:26.466Z,8.81
2022-11-21T19:58:55.926Z,8.70
2022-11-21T20:01:26.718Z,8.78
2022-11-21T20:03:57.346Z,8.83
2022-11-21T20:06:32.704Z,8.77
2022-11-21T20:09:09.232Z,8.75
2022-11-21T20:11:36.953Z,8.76
2022-11-21T20:14:04.199Z,8.75
2022-11-21T20:16:37.350Z,8.76
2022-11-21T20:19:07.787Z,8.78
2022-11-21T20:21:35.380Z,8.75
2022-11-21T20:24:02.628Z,8.77
2022-11-21T20:26:29.845Z,8.78
2022-11-21T20:28:57.073Z,8.74
2022-11-21T20:31:30.467Z,8.69
2022-11-21T20:34:00.878Z,8.71
2022-11-21T20:36:30.705Z,8.66
2022-11-21T20:39:04.183Z,8.69
2022-11-21T20:41:34.149Z,8.71
2022-11-21T20:46:54.947Z,8.65
2022-11-21T20:49:21.744Z,8.73
2022-11-21T20:54:36.424Z,8.69
2022-11-21T20:57:03.291Z,8.69
2022-11-21T20:59:30.247Z,8.69
2022-11-21T21:01:57.387Z,8.72
2022-11-21T21:04:24.246Z,8.77
2022-11-21T21:06:51.026Z,8.79
2022-11-21T21:09:17.776Z,8.79
2022-11-21T21:11:52.153Z,8.77
2022-11-21T21:14:21.652Z,8.74
2022-11-21T21:16:49.127Z,8.78
2022-11-21T21:19:16.135Z,8.67
2022-11-21T21:21:43.103Z,8.75
2022-11-21T21:24:11.513Z,8.69
2022-11-21T21:26:43.373Z,8.72
2022-11-21T21:29:13.056Z,8.71
2022-11-21T21:31:43.894Z,8.71
2022-11-21T21:34:13.790Z,8.74
2022-11-21T21:36:40.553Z,8.72
2022-11-21T21:39:07.472Z,8.71
2022-11-21T21:41:34.464Z,8.68
2022-11-21T21:44:01.283Z,8.69
2022-11-21T21:46:28.384Z,8.71
2022-11-21T21:48:57.433Z,8.69
2022-11-21T21:51:27.309Z,8.64
2022-11-21T21:53:56.424Z,8.64
2022-11-21T21:56:25.605Z,8.65
2022-11-21T21:58:52.632Z,8.62
2022-11-21T22:01:25.821Z,8.60
2022-11-21T22:03:55.721Z,8.65
2022-11-21T22:06:23.073Z,8.66
2022-11-21T22:08:50.255Z,8.58
2022-11-21T22:11:21.900Z,8.65
2022-11-21T22:13:56.628Z,8.64
2022-11-21T22:16:23.392Z,8.67
2022-11-21T22:18:50.467Z,8.68
2022-11-21T22:21:23.680Z,8.71
2022-11-21T22:24:17.830Z,8.70
2022-11-21T22:26:38.284Z,8.70
2022-11-21T22:29:05.198Z,8.71
2022-11-21T22:31:32.872Z,8.72
2022-11-21T22:34:00.342Z,8.71
2022-11-21T22:36:27.171Z,8.71
2022-11-21T22:38:54.844Z,8.67
2022-11-21T22:41:26.964Z,8.72
2022-11-21T22:43:57.172Z,8.70
2022-11-21T22:46:26.952Z,8.67
2022-11-21T22:48:54.036Z,8.70
2022-11-21T22:51:24.304Z,8.68
2022-11-21T22:53:51.809Z,8.65
2022-11-21T22:56:22.016Z,8.68
2022-11-21T22:58:48.975Z,8.68
2022-11-21T23:01:19.334Z,8.66
2022-11-21T23:03:47.316Z,8.68
2022-11-21T23:06:20.474Z,8.68
2022-11-21T23:08:48.433Z,8.67
2022-11-21T23:11:22.721Z,8.67
2022-11-21T23:13:50.384Z,8.67
2022-11-21T23:16:17.879Z,8.69
2022-11-21T23:18:45.266Z,8.72
2022-11-21T23:21:13.580Z,8.69
2022-11-21T23:23:40.706Z,8.69
2022-11-21T23:26:07.927Z,8.67
2022-11-21T23:28:34.828Z,8.64
2022-11-21T23:31:01.832Z,8.42
2022-11-21T23:33:28.693Z,8.61
2022-11-21T23:35:55.629Z,8.59
2022-11-21T23:38:22.508Z,8.61
2022-11-21T23:40:49.817Z,8.49
2022-11-21T23:43:17.476Z,8.70
2022-11-21T23:45:45.347Z,8.66
2022-11-21T23:48:12.211Z,8.58
2022-11-21T23:50:39.083Z,8.54
2022-11-21T23:53:05.934Z,8.51
2022-11-21T23:55:32.816Z,8.50
2022-11-21T23:57:59.667Z,8.58
